Time;durP1;ratioP1;P1;durP2;ratioP2;P2;SDS_P1;SDS_P2;PMS_P1;PMS_P2;Temp;Humidity;BMP_temperature;BMP_pressure;BME280_temperature;BME280_humidity;BME280_pressure;Samples;Min_cycle;Max_cycle;Signal;HPM_P1;HPM_P2
2021/07/16 00:01:23;;;;;;;5.80;1.60;;;;;;;;;;5028730;28;20508;-71
2021/07/16 00:03:49;;;;;;;2.38;1.33;;;;;;;;;;5028985;28;20032;-70
2021/07/16 00:06:16;;;;;;;3.38;1.70;;;;;;;;;;5027085;28;20030;-70
2021/07/16 00:08:42;;;;;;;5.80;1.95;;;;;;;;;;5028433;28;20385;-71
2021/07/16 00:11:08;;;;;;;4.78;1.80;;;;;;;;;;5028746;28;20144;-70
2021/07/16 00:13:34;;;;;;;9.55;1.63;;;;;;;;;;5028845;28;20047;-70
2021/07/16 00:16:00;;;;;;;6.85;1.75;;;;;;;;;;5028594;28;20029;-70
2021/07/16 00:18:26;;;;;;;5.78;1.67;;;;;;;;;;5028545;28;20056;-70
2021/07/16 00:20:53;;;;;;;3.67;1.60;;;;;;;;;;5025765;28;20025;-71
2021/07/16 00:23:19;;;;;;;5.60;1.80;;;;;;;;;;5028020;28;20031;-70
2021/07/16 00:25:46;;;;;;;7.45;2.00;;;;;;;;;;5028585;28;20037;-70
2021/07/16 00:28:12;;;;;;;3.45;1.40;;;;;;;;;;5028102;28;20035;-71
2021/07/16 00:30:38;;;;;;;5.18;1.50;;;;;;;;;;5026824;28;20099;-71
2021/07/16 00:33:05;;;;;;;3.08;1.40;;;;;;;;;;5027929;28;20036;-71
2021/07/16 00:35:31;;;;;;;3.03;1.63;;;;;;;;;;5028090;28;20021;-71
2021/07/16 00:37:58;;;;;;;6.72;1.85;;;;;;;;;;5028023;28;20030;-70
2021/07/16 00:40:25;;;;;;;5.18;1.77;;;;;;;;;;5028391;28;20026;-71
2021/07/16 00:42:51;;;;;;;3.65;1.70;;;;;;;;;;5026578;28;20104;-71
2021/07/16 00:45:17;;;;;;;5.00;1.70;;;;;;;;;;5028013;28;20489;-70
2021/07/16 00:47:45;;;;;;;3.80;1.50;;;;;;;;;;5028091;28;20047;-70
2021/07/16 00:50:13;;;;;;;4.63;1.67;;;;;;;;;;5027960;28;20025;-71
2021/07/16 00:52:40;;;;;;;3.83;1.58;;;;;;;;;;5027601;28;20124;-71
2021/07/16 00:55:07;;;;;;;2.15;1.23;;;;;;;;;;5016698;28;20080;-70
2021/07/16 00:57:33;;;;;;;2.28;1.40;;;;;;;;;;5027352;28;20037;-71
2021/07/16 01:00:00;;;;;;;9.77;1.80;;;;;;;;;;5027891;28;20087;-71
2021/07/16 01:02:27;;;;;;;2.58;1.25;;;;;;;;;;5026785;28;20030;-71
2021/07/16 01:04:53;;;;;;;4.65;1.67;;;;;;;;;;5026051;28;20434;-71
2021/07/16 01:07:20;;;;;;;3.55;1.90;;;;;;;;;;5027526;28;20521;-70
2021/07/16 01:09:50;;;;;;;12.18;2.40;;;;;;;;;;5026880;28;20080;-71
2021/07/16 01:12:16;;;;;;;31.80;3.28;;;;;;;;;;5024859;28;20115;-71
2021/07/16 01:14:42;;;;;;;7.35;1.40;;;;;;;;;;5027478;28;20199;-71
2021/07/16 01:17:09;;;;;;;6.15;1.10;;;;;;;;;;5027013;28;20054;-71
2021/07/16 01:19:47;;;;;;;4.57;1.33;;;;;;;;;;5027260;28;20029;-71
2021/07/16 01:22:15;;;;;;;8.27;2.08;;;;;;;;;;5027602;28;20048;-70
2021/07/16 01:24:41;;;;;;;5.20;1.45;;;;;;;;;;5026570;28;20029;-71
2021/07/16 01:27:07;;;;;;;5.55;1.58;;;;;;;;;;5025563;28;20029;-70
2021/07/16 01:29:34;;;;;;;1.70;1.05;;;;;;;;;;5025648;28;20516;-71
2021/07/16 01:32:00;;;;;;;2.58;1.10;;;;;;;;;;5026956;28;20558;-71
2021/07/16 01:34:27;;;;;;;4.53;1.00;;;;;;;;;;5027202;28;20359;-70
2021/07/16 01:36:53;;;;;;;2.08;1.08;;;;;;;;;;5026253;28;20021;-70
2021/07/16 01:39:19;;;;;;;6.55;1.90;;;;;;;;;;5025221;28;20517;-71
2021/07/16 01:41:45;;;;;;;1.90;1.10;;;;;;;;;;5026828;28;20033;-70
2021/07/16 01:44:12;;;;;;;4.63;1.40;;;;;;;;;;5026898;28;20037;-70
2021/07/16 01:46:38;;;;;;;3.15;1.50;;;;;;;;;;5027091;28;20029;-70
2021/07/16 01:49:04;;;;;;;6.95;1.40;;;;;;;;;;5027010;28;20029;-71
2021/07/16 01:51:31;;;;;;;3.95;1.33;;;;;;;;;;5025327;28;20032;-71
2021/07/16 01:53:58;;;;;;;2.95;1.27;;;;;;;;;;5026293;28;20064;-70
2021/07/16 01:56:24;;;;;;;3.20;0.90;;;;;;;;;;5026715;28;20087;-71
2021/07/16 01:58:51;;;;;;;1.00;0.55;;;;;;;;;;5026546;28;20131;-71
2021/07/16 02:01:18;;;;;;;0.90;0.50;;;;;;;;;;5025844;28;20091;-71
2021/07/16 02:03:44;;;;;;;1.42;0.65;;;;;;;;;;5025095;28;20025;-71
2021/07/16 02:06:11;;;;;;;1.90;0.80;;;;;;;;;;5026776;28;20736;-71
2021/07/16 02:08:37;;;;;;;10.00;1.88;;;;;;;;;;5026667;28;20033;-70
2021/07/16 02:11:04;;;;;;;4.07;1.27;;;;;;;;;;5026600;28;20029;-71
2021/07/16 02:13:30;;;;;;;2.90;0.80;;;;;;;;;;5026625;28;20014;-70
2021/07/16 02:15:56;;;;;;;2.15;1.08;;;;;;;;;;5025163;28;20087;-70
2021/07/16 02:18:23;;;;;;;2.22;0.90;;;;;;;;;;5026075;28;20060;-71
2021/07/16 02:20:49;;;;;;;3.00;1.00;;;;;;;;;;5026429;28;20025;-70
2021/07/16 02:23:20;;;;;;;5.03;1.40;;;;;;;;;;5026394;28;20032;-71
2021/07/16 02:25:47;;;;;;;2.63;1.20;;;;;;;;;;5026248;28;20029;-71
2021/07/16 02:28:15;;;;;;;2.00;1.10;;;;;;;;;;5024938;28;20060;-70
2021/07/16 02:30:41;;;;;;;12.75;2.10;;;;;;;;;;5026399;28;20631;-71
2021/07/16 02:33:07;;;;;;;5.80;1.77;;;;;;;;;;5026539;28;20037;-71
2021/07/16 02:35:34;;;;;;;4.07;1.50;;;;;;;;;;5024702;28;20075;-71
2021/07/16 02:38:01;;;;;;;2.65;1.58;;;;;;;;;;5026075;28;20034;-71
2021/07/16 02:40:27;;;;;;;6.30;1.17;;;;;;;;;;5026368;28;20028;-71
2021/07/16 02:42:53;;;;;;;2.55;1.35;;;;;;;;;;5026542;28;20113;-71
2021/07/16 02:45:20;;;;;;;3.20;1.50;;;;;;;;;;5026277;28;20032;-71
2021/07/16 02:47:47;;;;;;;3.58;1.45;;;;;;;;;;5026040;28;20044;-71
2021/07/16 02:50:14;;;;;;;3.50;1.08;;;;;;;;;;5024875;28;20493;-71
2021/07/16 02:52:40;;;;;;;4.57;1.23;;;;;;;;;;5012539;28;20032;-70
2021/07/16 02:55:07;;;;;;;1.17;0.75;;;;;;;;;;5026053;28;20033;-70
2021/07/16 02:57:33;;;;;;;2.88;0.93;;;;;;;;;;5025718;28;20033;-71
2021/07/16 02:59:59;;;;;;;0.90;0.60;;;;;;;;;;5024734;28;20497;-71
2021/07/16 03:02:29;;;;;;;1.88;1.00;;;;;;;;;;5018575;28;20038;-71
2021/07/16 03:04:56;;;;;;;1.52;0.50;;;;;;;;;;5010458;28;20048;-71
2021/07/16 03:07:22;;;;;;;1.70;0.73;;;;;;;;;;5006513;28;20021;-71
2021/07/16 03:09:49;;;;;;;0.50;0.50;;;;;;;;;;5006755;28;20594;-71
2021/07/16 03:12:15;;;;;;;6.35;0.85;;;;;;;;;;5021154;28;20026;-71
2021/07/16 03:14:41;;;;;;;3.35;0.80;;;;;;;;;;5021072;28;20022;-71
2021/07/16 03:17:07;;;;;;;1.05;0.57;;;;;;;;;;5020698;28;20076;-71
2021/07/16 03:19:34;;;;;;;1.80;0.93;;;;;;;;;;5021154;28;20113;-71
2021/07/16 03:22:00;;;;;;;1.75;0.80;;;;;;;;;;5019812;28;20017;-71
2021/07/16 03:24:26;;;;;;;2.65;0.75;;;;;;;;;;5020823;28;20033;-71
2021/07/16 03:26:53;;;;;;;20.48;2.25;;;;;;;;;;5024988;28;20726;-71
2021/07/16 03:29:19;;;;;;;5.95;1.15;;;;;;;;;;5024525;28;20033;-71
2021/07/16 03:31:45;;;;;;;2.40;0.80;;;;;;;;;;5024591;28;20021;-71
2021/07/16 03:34:11;;;;;;;1.13;0.80;;;;;;;;;;5024725;28;20136;-71
2021/07/16 03:36:37;;;;;;;1.38;0.73;;;;;;;;;;5023006;28;20018;-71
2021/07/16 03:39:04;;;;;;;3.35;0.60;;;;;;;;;;5024461;28;20584;-71
2021/07/16 03:41:31;;;;;;;8.73;1.10;;;;;;;;;;5024469;28;20021;-71
2021/07/16 03:43:57;;;;;;;5.30;0.80;;;;;;;;;;5024717;28;20486;-70
2021/07/16 03:46:27;;;;;;;1.58;0.80;;;;;;;;;;5024335;28;20025;-71
2021/07/16 03:48:54;;;;;;;10.88;1.25;;;;;;;;;;5022706;28;20385;-71
2021/07/16 03:51:21;;;;;;;31.70;2.72;;;;;;;;;;5023297;28;20112;-71
2021/07/16 03:53:47;;;;;;;8.52;1.33;;;;;;;;;;5023621;28;20053;-71
2021/07/16 03:56:13;;;;;;;6.68;1.20;;;;;;;;;;5022674;28;20044;-71
2021/07/16 03:58:39;;;;;;;3.10;1.27;;;;;;;;;;5022230;28;20049;-71
2021/07/16 04:01:05;;;;;;;23.98;3.80;;;;;;;;;;5024299;28;20576;-70
2021/07/16 04:03:31;;;;;;;1.65;1.10;;;;;;;;;;5023654;28;20032;-71
2021/07/16 04:05:57;;;;;;;3.40;0.90;;;;;;;;;;5023981;28;20021;-70
2021/07/16 04:08:24;;;;;;;1.10;0.80;;;;;;;;;;5022491;28;20185;-71
2021/07/16 04:10:50;;;;;;;3.97;1.33;;;;;;;;;;5023958;28;20026;-71
2021/07/16 04:13:16;;;;;;;5.70;1.38;;;;;;;;;;5023806;28;20036;-70
2021/07/16 04:15:43;;;;;;;2.70;1.38;;;;;;;;;;5023537;28;20017;-70
2021/07/16 04:18:11;;;;;;;5.35;1.50;;;;;;;;;;5023700;28;20056;-71
2021/07/16 04:20:41;;;;;;;4.65;1.00;;;;;;;;;;5022289;28;20076;-71
2021/07/16 04:23:08;;;;;;;1.00;0.90;;;;;;;;;;5023474;28;20025;-71
2021/07/16 04:25:34;;;;;;;1.75;1.20;;;;;;;;;;5023536;28;20029;-70
2021/07/16 04:28:02;;;;;;;0.95;0.80;;;;;;;;;;5022954;28;20026;-70
2021/07/16 04:30:29;;;;;;;4.10;1.27;;;;;;;;;;5023590;28;20417;-71
2021/07/16 04:32:56;;;;;;;1.85;1.00;;;;;;;;;;5021718;28;20030;-71
2021/07/16 04:35:22;;;;;;;1.88;1.00;;;;;;;;;;5023617;28;20036;-71
2021/07/16 04:37:48;;;;;;;1.98;1.00;;;;;;;;;;5023454;28;20040;-71
2021/07/16 04:40:16;;;;;;;3.50;1.20;;;;;;;;;;5023164;28;20478;-71
2021/07/16 04:42:42;;;;;;;3.03;1.23;;;;;;;;;;5021825;28;20057;-71
2021/07/16 04:45:09;;;;;;;2.25;1.00;;;;;;;;;;5022959;28;20022;-71
2021/07/16 04:47:36;;;;;;;2.55;1.50;;;;;;;;;;5022870;28;20040;-70
2021/07/16 04:50:03;;;;;;;7.65;1.98;;;;;;;;;;5022304;28;20040;-71
2021/07/16 04:52:29;;;;;;;3.85;1.50;;;;;;;;;;5022882;28;20025;-71
2021/07/16 04:54:55;;;;;;;2.45;1.30;;;;;;;;;;5022894;28;20446;-71
2021/07/16 04:57:21;;;;;;;2.42;1.25;;;;;;;;;;5021033;28;20045;-71
2021/07/16 04:59:49;;;;;;;2.42;1.00;;;;;;;;;;5022747;28;20024;-70
2021/07/16 05:02:15;;;;;;;2.45;1.27;;;;;;;;;;5022586;28;20018;-71
2021/07/16 05:04:41;;;;;;;2.90;1.10;;;;;;;;;;5023410;28;20021;-70
2021/07/16 05:07:09;;;;;;;3.53;1.40;;;;;;;;;;5022763;28;20163;-71
2021/07/16 05:09:35;;;;;;;3.88;1.63;;;;;;;;;;5022159;28;20049;-71
2021/07/16 05:12:01;;;;;;;3.25;1.65;;;;;;;;;;5018387;28;20399;-71
2021/07/16 05:14:27;;;;;;;6.85;1.25;;;;;;;;;;5022872;28;20382;-71
2021/07/16 05:16:54;;;;;;;6.97;1.15;;;;;;;;;;5022700;28;20049;-71
2021/07/16 05:19:20;;;;;;;2.03;1.10;;;;;;;;;;5020957;28;20138;-70
2021/07/16 05:21:46;;;;;;;1.85;0.90;;;;;;;;;;5021587;28;20045;-70
2021/07/16 05:24:12;;;;;;;3.35;1.33;;;;;;;;;;5021554;28;20193;-71
2021/07/16 05:26:39;;;;;;;4.03;1.38;;;;;;;;;;5022549;28;20025;-70
2021/07/16 05:29:05;;;;;;;2.85;1.20;;;;;;;;;;5022553;28;20028;-70
2021/07/16 05:31:31;;;;;;;2.95;1.40;;;;;;;;;;5022013;28;21478;-71
2021/07/16 05:33:57;;;;;;;3.97;1.20;;;;;;;;;;5016568;28;20034;-71
2021/07/16 05:36:23;;;;;;;2.33;1.10;;;;;;;;;;5019312;28;20404;-72
2021/07/16 05:38:49;;;;;;;2.20;0.95;;;;;;;;;;5021571;28;20037;-70
2021/07/16 05:41:16;;;;;;;2.42;1.02;;;;;;;;;;5022272;28;20105;-70
2021/07/16 05:43:42;;;;;;;1.95;1.00;;;;;;;;;;5022328;28;20025;-71
2021/07/16 05:46:08;;;;;;;1.95;0.90;;;;;;;;;;5022309;28;20231;-70
2021/07/16 05:48:36;;;;;;;2.20;0.70;;;;;;;;;;5020270;28;20090;-71
2021/07/16 05:51:02;;;;;;;1.65;0.93;;;;;;;;;;5022468;28;20124;-70
2021/07/16 05:53:28;;;;;;;2.42;0.93;;;;;;;;;;5020944;28;20021;-70
2021/07/16 05:55:55;;;;;;;1.33;0.75;;;;;;;;;;5021109;28;20028;-71
2021/07/16 05:58:21;;;;;;;2.38;0.82;;;;;;;;;;5022281;28;20425;-71
2021/07/16 06:00:48;;;;;;;1.60;0.88;;;;;;;;;;5022007;28;20619;-71
2021/07/16 06:03:14;;;;;;;1.60;1.00;;;;;;;;;;5020929;28;20593;-69
2021/07/16 06:05:42;;;;;;;2.80;1.00;;;;;;;;;;5012276;28;20009;-71
2021/07/16 06:08:08;;;;;;;2.25;1.00;;;;;;;;;;5022019;28;20037;-71
2021/07/16 06:10:34;;;;;;;5.97;1.25;;;;;;;;;;5021686;28;20029;-71
2021/07/16 06:13:01;;;;;;;2.63;1.25;;;;;;;;;;5021176;28;20064;-71
2021/07/16 06:15:27;;;;;;;2.75;1.08;;;;;;;;;;5021636;28;20390;-72
2021/07/16 06:17:53;;;;;;;1.20;0.90;;;;;;;;;;5020281;28;20064;-71
2021/07/16 06:20:20;;;;;;;2.20;1.00;;;;;;;;;;5021681;28;20029;-71
2021/07/16 06:22:46;;;;;;;3.58;0.95;;;;;;;;;;5021271;28;20029;-72
2021/07/16 06:25:13;;;;;;;2.13;1.00;;;;;;;;;;5015586;28;20370;-71
2021/07/16 06:27:40;;;;;;;2.22;1.00;;;;;;;;;;5005054;28;20430;-71
2021/07/16 06:30:10;;;;;;;4.30;1.23;;;;;;;;;;5002454;28;20014;-72
2021/07/16 06:32:36;;;;;;;1.27;0.90;;;;;;;;;;5011082;28;20084;-72
2021/07/16 06:35:03;;;;;;;3.15;1.40;;;;;;;;;;5006141;28;20098;-72
2021/07/16 06:37:29;;;;;;;3.70;1.25;;;;;;;;;;5002024;28;20219;-71
2021/07/16 06:39:57;;;;;;;3.85;1.42;;;;;;;;;;5003227;28;20091;-71
2021/07/16 06:42:24;;;;;;;2.65;1.17;;;;;;;;;;5013670;28;20030;-71
2021/07/16 06:44:50;;;;;;;3.83;1.30;;;;;;;;;;5009429;28;20034;-72
2021/07/16 06:47:16;;;;;;;1.45;0.80;;;;;;;;;;5005570;28;20465;-72
2021/07/16 06:49:42;;;;;;;3.05;0.98;;;;;;;;;;5009157;28;20075;-72
2021/07/16 06:52:09;;;;;;;3.70;1.05;;;;;;;;;;5009648;28;20247;-72
2021/07/16 06:54:35;;;;;;;1.42;0.90;;;;;;;;;;5020845;28;20787;-72
2021/07/16 06:57:01;;;;;;;3.72;1.45;;;;;;;;;;5022325;28;20269;-71
2021/07/16 06:59:27;;;;;;;2.40;1.10;;;;;;;;;;5022111;28;20036;-71
2021/07/16 07:01:53;;;;;;;1.40;0.80;;;;;;;;;;5025946;28;20028;-72
2021/07/16 07:04:20;;;;;;;3.30;1.10;;;;;;;;;;5026081;28;20474;-72
2021/07/16 07:06:46;;;;;;;2.30;1.30;;;;;;;;;;5023766;28;20454;-71
2021/07/16 07:09:12;;;;;;;5.03;1.50;;;;;;;;;;5024890;28;20509;-72
2021/07/16 07:11:38;;;;;;;3.38;1.60;;;;;;;;;;5025005;28;20056;-72
2021/07/16 07:14:06;;;;;;;2.08;1.15;;;;;;;;;;5024994;28;20029;-71
2021/07/16 07:16:32;;;;;;;2.83;1.52;;;;;;;;;;5024638;28;20052;-72
2021/07/16 07:18:58;;;;;;;5.55;1.80;;;;;;;;;;5017515;28;20061;-71
2021/07/16 07:21:24;;;;;;;6.68;1.80;;;;;;;;;;5010610;28;20018;-72
2021/07/16 07:23:51;;;;;;;4.53;1.52;;;;;;;;;;5007705;28;20033;-72
2021/07/16 07:26:17;;;;;;;5.60;1.73;;;;;;;;;;5009317;28;20099;-72
2021/07/16 07:28:43;;;;;;;3.05;1.25;;;;;;;;;;5007695;28;20034;-72
2021/07/16 07:31:09;;;;;;;2.28;1.20;;;;;;;;;;5005651;28;20386;-71
2021/07/16 07:33:35;;;;;;;3.90;1.45;;;;;;;;;;5005477;28;20056;-72
2021/07/16 07:36:02;;;;;;;2.60;1.48;;;;;;;;;;5020301;28;20156;-72
2021/07/16 07:38:31;;;;;;;2.95;1.50;;;;;;;;;;5028902;28;20051;-72
2021/07/16 07:40:57;;;;;;;5.15;1.45;;;;;;;;;;5027223;28;20033;-71
2021/07/16 07:43:24;;;;;;;4.95;1.50;;;;;;;;;;5029520;28;20029;-72
2021/07/16 07:45:50;;;;;;;2.60;1.33;;;;;;;;;;5026116;28;20029;-71
2021/07/16 07:48:16;;;;;;;3.10;1.17;;;;;;;;;;5025011;28;20506;-71
2021/07/16 07:50:42;;;;;;;3.08;1.40;;;;;;;;;;5028912;28;20025;-72
2021/07/16 07:53:09;;;;;;;3.38;1.23;;;;;;;;;;5026364;28;20040;-72
2021/07/16 07:55:35;;;;;;;3.47;1.40;;;;;;;;;;5027775;28;20074;-73
2021/07/16 07:58:01;;;;;;;4.25;1.50;;;;;;;;;;5026107;28;20045;-71
2021/07/16 08:00:28;;;;;;;4.13;1.58;;;;;;;;;;5029909;28;20274;-71
2021/07/16 08:02:54;;;;;;;4.65;1.38;;;;;;;;;;5026825;28;20079;-72
2021/07/16 08:05:21;;;;;;;4.82;1.50;;;;;;;;;;5027930;28;20536;-71
2021/07/16 08:07:47;;;;;;;3.08;1.35;;;;;;;;;;5028421;28;20585;-72
2021/07/16 08:10:14;;;;;;;4.40;1.35;;;;;;;;;;5022340;28;20048;-71
2021/07/16 08:12:41;;;;;;;2.72;1.30;;;;;;;;;;5023190;28;20382;-71
2021/07/16 08:15:08;;;;;;;3.47;1.65;;;;;;;;;;5024031;28;20199;-71
2021/07/16 08:17:34;;;;;;;2.83;1.48;;;;;;;;;;5023765;28;20084;-72
2021/07/16 08:20:01;;;;;;;3.00;1.33;;;;;;;;;;5023768;28;20628;-72
2021/07/16 08:22:27;;;;;;;3.63;1.80;;;;;;;;;;5022116;28;20112;-72
2021/07/16 08:24:53;;;;;;;5.60;1.70;;;;;;;;;;5023792;28;20048;-72
2021/07/16 08:27:19;;;;;;;3.75;1.40;;;;;;;;;;5024184;28;20473;-72
2021/07/16 08:29:45;;;;;;;2.33;1.30;;;;;;;;;;5023407;28;20259;-72
2021/07/16 08:32:12;;;;;;;2.30;1.10;;;;;;;;;;5023584;28;20037;-72
2021/07/16 08:34:38;;;;;;;4.10;1.50;;;;;;;;;;5021676;28;20273;-71
2021/07/16 08:37:04;;;;;;;2.15;1.50;;;;;;;;;;5023389;28;20026;-72
2021/07/16 08:39:30;;;;;;;2.92;1.55;;;;;;;;;;5023632;28;20040;-72
2021/07/16 08:41:57;;;;;;;3.40;1.42;;;;;;;;;;5022972;28;20112;-73
2021/07/16 08:44:24;;;;;;;6.18;1.50;;;;;;;;;;5022971;28;20117;-77
2021/07/16 08:46:50;;;;;;;4.68;1.60;;;;;;;;;;5022485;28;20110;-74
2021/07/16 08:49:17;;;;;;;3.45;1.30;;;;;;;;;;5019302;28;20039;-75
2021/07/16 08:51:43;;;;;;;3.47;1.15;;;;;;;;;;5018493;28;20111;-73
2021/07/16 08:54:14;;;;;;;3.03;1.33;;;;;;;;;;5021644;28;20100;-72
2021/07/16 08:56:40;;;;;;;2.55;1.30;;;;;;;;;;5023225;28;20120;-72
2021/07/16 08:59:08;;;;;;;2.08;1.35;;;;;;;;;;5016527;28;20044;-72
2021/07/16 09:01:34;;;;;;;2.95;1.40;;;;;;;;;;5014736;28;20104;-72
2021/07/16 09:04:04;;;;;;;2.95;1.40;;;;;;;;;;5029188;28;20051;-71
2021/07/16 09:06:50;;;;;;;3.20;1.33;;;;;;;;;;5026791;28;20018;-71
2021/07/16 09:09:18;;;;;;;3.05;1.50;;;;;;;;;;5025177;28;20048;-71
2021/07/16 09:11:46;;;;;;;2.90;1.80;;;;;;;;;;5022742;28;20022;-70
2021/07/16 09:14:19;;;;;;;4.32;1.67;;;;;;;;;;5022499;28;20504;-70
2021/07/16 09:16:55;;;;;;;3.25;1.65;;;;;;;;;;5019009;28;20701;-73
2021/07/16 09:19:27;;;;;;;14.25;1.85;;;;;;;;;;5024028;28;20036;-73
2021/07/16 09:22:04;;;;;;;3.05;1.52;;;;;;;;;;5029503;28;20030;-73
2021/07/16 09:24:30;;;;;;;3.10;1.60;;;;;;;;;;5030388;28;20071;-71
2021/07/16 09:26:56;;;;;;;4.03;1.65;;;;;;;;;;5030633;28;20035;-71
2021/07/16 09:29:33;;;;;;;5.15;1.70;;;;;;;;;;5030118;28;20087;-72
2021/07/16 09:32:07;;;;;;;2.97;1.67;;;;;;;;;;5018277;28;20025;-73
2021/07/16 09:34:33;;;;;;;3.92;1.70;;;;;;;;;;5017253;28;20017;-73
2021/07/16 09:37:07;;;;;;;4.60;1.92;;;;;;;;;;5021878;28;20121;-73
2021/07/16 09:39:34;;;;;;;2.40;1.45;;;;;;;;;;5030007;28;20037;-72
2021/07/16 09:42:01;;;;;;;2.90;1.50;;;;;;;;;;5017648;28;20563;-72
2021/07/16 09:44:45;;;;;;;2.38;1.45;;;;;;;;;;5019697;28;20037;-73
2021/07/16 09:47:12;;;;;;;3.08;1.55;;;;;;;;;;5035114;28;20027;-73
2021/07/16 09:49:39;;;;;;;6.10;1.65;;;;;;;;;;5032160;28;20110;-72
2021/07/16 09:52:12;;;;;;;6.13;2.05;;;;;;;;;;5019692;28;20073;-72
2021/07/16 09:54:39;;;;;;;3.17;1.63;;;;;;;;;;5023894;28;20022;-72
2021/07/16 09:57:06;;;;;;;4.13;1.70;;;;;;;;;;5033157;28;20028;-73
2021/07/16 09:59:32;;;;;;;2.53;1.50;;;;;;;;;;5020030;28;20116;-74
2021/07/16 10:01:59;;;;;;;2.90;1.30;;;;;;;;;;5013507;28;20108;-74
2021/07/16 10:04:32;;;;;;;3.55;1.95;;;;;;;;;;5030758;28;20564;-72
2021/07/16 10:06:58;;;;;;;2.88;1.63;;;;;;;;;;5024305;28;20026;-72
2021/07/16 10:09:25;;;;;;;6.03;1.85;;;;;;;;;;5024955;28;20031;-73
2021/07/16 10:11:53;;;;;;;4.65;1.80;;;;;;;;;;5020072;28;20130;-74
2021/07/16 10:14:19;;;;;;;5.43;2.20;;;;;;;;;;5021371;28;20555;-75
2021/07/16 10:16:50;;;;;;;3.20;1.85;;;;;;;;;;5021387;28;20561;-71
2021/07/16 10:19:17;;;;;;;10.98;2.38;;;;;;;;;;5021296;28;20044;-74
2021/07/16 10:21:46;;;;;;;4.45;1.70;;;;;;;;;;5017256;28;20777;-73
2021/07/16 10:24:13;;;;;;;4.47;1.88;;;;;;;;;;5018898;28;20131;-72
2021/07/16 10:26:40;;;;;;;7.07;2.55;;;;;;;;;;5018227;28;20032;-75
2021/07/16 10:29:25;;;;;;;2.90;2.03;;;;;;;;;;5028137;28;20043;-74
2021/07/16 10:31:51;;;;;;;5.43;2.05;;;;;;;;;;5026773;28;20021;-73
2021/07/16 10:34:18;;;;;;;3.47;1.98;;;;;;;;;;5034512;28;20117;-73
2021/07/16 10:36:45;;;;;;;2.90;1.55;;;;;;;;;;5026525;28;20026;-72
2021/07/16 10:39:19;;;;;;;7.07;2.20;;;;;;;;;;5024448;28;20092;-73
2021/07/16 10:41:45;;;;;;;5.13;2.00;;;;;;;;;;5032881;28;20698;-73
2021/07/16 10:44:16;;;;;;;2.97;2.03;;;;;;;;;;5037998;28;20039;-72
2021/07/16 10:46:46;;;;;;;4.20;1.92;;;;;;;;;;5034674;28;20036;-71
2021/07/16 10:49:14;;;;;;;4.10;1.52;;;;;;;;;;5028336;28;20030;-72
2021/07/16 10:51:41;;;;;;;6.38;2.20;;;;;;;;;;5036696;28;20091;-71
2021/07/16 10:54:12;;;;;;;10.52;1.67;;;;;;;;;;5031639;28;20068;-73
2021/07/16 10:56:45;;;;;;;5.25;1.88;;;;;;;;;;5022520;28;20497;-72
2021/07/16 10:59:31;;;;;;;3.17;1.75;;;;;;;;;;5026167;28;20629;-70
2021/07/16 11:01:58;;;;;;;4.35;2.05;;;;;;;;;;5028015;28;20030;-70
2021/07/16 11:04:33;;;;;;;5.05;2.20;;;;;;;;;;5037774;28;20025;-70
2021/07/16 11:06:59;;;;;;;4.78;2.15;;;;;;;;;;5030943;28;20025;-70
2021/07/16 11:09:34;;;;;;;7.28;1.95;;;;;;;;;;5008003;28;20037;-71
2021/07/16 11:12:19;;;;;;;4.90;2.38;;;;;;;;;;5024284;28;20067;-71
2021/07/16 11:14:46;;;;;;;5.88;1.92;;;;;;;;;;5023479;28;20075;-71
2021/07/16 11:17:24;;;;;;;7.72;2.60;;;;;;;;;;5023003;28;20111;-70
2021/07/16 11:20:09;;;;;;;5.97;1.92;;;;;;;;;;5022759;28;20061;-71
2021/07/16 11:22:53;;;;;;;6.63;2.20;;;;;;;;;;5023538;28;20336;-72
2021/07/16 11:25:19;;;;;;;6.10;2.10;;;;;;;;;;5012227;28;20033;-71
2021/07/16 11:27:45;;;;;;;4.38;1.83;;;;;;;;;;5024926;28;20036;-72
2021/07/16 11:30:12;;;;;;;6.13;1.80;;;;;;;;;;5022056;28;20021;-72
2021/07/16 11:32:38;;;;;;;4.97;1.90;;;;;;;;;;5024050;28;20738;-71
2021/07/16 11:35:06;;;;;;;4.88;2.10;;;;;;;;;;5023840;28;20030;-70
2021/07/16 11:37:35;;;;;;;6.40;2.08;;;;;;;;;;5024291;28;20029;-71
2021/07/16 11:40:03;;;;;;;4.70;1.92;;;;;;;;;;5021168;28;20156;-71
2021/07/16 11:42:30;;;;;;;5.22;2.47;;;;;;;;;;5023411;28;20668;-70
2021/07/16 11:44:56;;;;;;;4.47;1.90;;;;;;;;;;5022865;28;20025;-72
2021/07/16 11:47:27;;;;;;;10.73;2.10;;;;;;;;;;5022477;28;20090;-71
2021/07/16 11:49:55;;;;;;;5.97;1.98;;;;;;;;;;5016393;28;20037;-71
2021/07/16 11:52:26;;;;;;;7.82;2.35;;;;;;;;;;5022777;28;20110;-72
2021/07/16 11:54:52;;;;;;;7.40;2.30;;;;;;;;;;5023393;28;20037;-72
2021/07/16 11:57:19;;;;;;;4.40;2.50;;;;;;;;;;5022036;28;20089;-71
2021/07/16 11:59:52;;;;;;;7.93;2.25;;;;;;;;;;5022998;28;20422;-70
2021/07/16 12:02:19;;;;;;;6.68;2.38;;;;;;;;;;5023366;28;20083;-72
2021/07/16 12:04:47;;;;;;;6.78;2.45;;;;;;;;;;5023669;28;20026;-71
2021/07/16 12:07:13;;;;;;;4.60;2.28;;;;;;;;;;5022232;28;20036;-71
2021/07/16 12:09:44;;;;;;;5.60;2.60;;;;;;;;;;5023305;28;20492;-73
2021/07/16 12:12:12;;;;;;;4.93;2.00;;;;;;;;;;5023096;28;20037;-72
2021/07/16 12:14:50;;;;;;;7.10;2.40;;;;;;;;;;5023048;28;20048;-72
2021/07/16 12:17:18;;;;;;;8.52;2.35;;;;;;;;;;5023250;28;20088;-72
2021/07/16 12:19:44;;;;;;;7.35;2.38;;;;;;;;;;5021608;28;20052;-72
2021/07/16 12:22:12;;;;;;;4.78;2.40;;;;;;;;;;5023002;28;20029;-73
2021/07/16 12:24:40;;;;;;;6.32;2.33;;;;;;;;;;5023167;28;20288;-72
2021/07/16 12:27:10;;;;;;;7.88;2.47;;;;;;;;;;5023321;28;20028;-72
2021/07/16 12:29:36;;;;;;;7.72;1.90;;;;;;;;;;5023025;28;20025;-71
2021/07/16 12:32:03;;;;;;;6.15;1.65;;;;;;;;;;5021633;28;20022;-70
2021/07/16 12:34:29;;;;;;;3.92;2.17;;;;;;;;;;5022323;28;20474;-71
2021/07/16 12:37:12;;;;;;;5.75;2.40;;;;;;;;;;5023079;28;20581;-70
2021/07/16 12:39:39;;;;;;;5.75;2.00;;;;;;;;;;5020722;28;20038;-71
2021/07/16 12:42:13;;;;;;;6.10;2.38;;;;;;;;;;5022512;28;20029;-71
2021/07/16 12:44:39;;;;;;;7.35;2.45;;;;;;;;;;5022255;28;20037;-71
2021/07/16 12:47:06;;;;;;;5.00;1.90;;;;;;;;;;5021307;28;20088;-71
2021/07/16 12:49:32;;;;;;;6.13;2.05;;;;;;;;;;5022650;28;20037;-71
2021/07/16 12:52:09;;;;;;;6.20;2.33;;;;;;;;;;5020580;28;20029;-71
2021/07/16 12:54:35;;;;;;;4.55;2.35;;;;;;;;;;5022148;28;20021;-71
2021/07/16 12:57:14;;;;;;;5.43;2.20;;;;;;;;;;5021711;28;20053;-71
2021/07/16 12:59:48;;;;;;;5.78;2.28;;;;;;;;;;5022044;28;20095;-71
2021/07/16 13:02:21;;;;;;;4.88;2.13;;;;;;;;;;5022558;28;20082;-71
2021/07/16 13:04:48;;;;;;;4.18;2.20;;;;;;;;;;5022844;28;20575;-71
2021/07/16 13:07:25;;;;;;;5.53;2.05;;;;;;;;;;5021999;28;20498;-71
2021/07/16 13:09:51;;;;;;;9.07;2.42;;;;;;;;;;5008582;28;20033;-71
2021/07/16 13:12:22;;;;;;;4.47;2.17;;;;;;;;;;5022439;28;20030;-71
2021/07/16 13:14:55;;;;;;;5.03;2.20;;;;;;;;;;5020099;28;20026;-71
2021/07/16 13:17:22;;;;;;;3.25;2.22;;;;;;;;;;5012061;28;20371;-70
2021/07/16 13:19:54;;;;;;;7.35;2.25;;;;;;;;;;5036820;28;20025;-71
2021/07/16 13:22:20;;;;;;;4.28;2.22;;;;;;;;;;5040264;28;20100;-71
2021/07/16 13:24:48;;;;;;;5.97;2.40;;;;;;;;;;5038501;28;20033;-71
2021/07/16 13:27:14;;;;;;;7.22;2.50;;;;;;;;;;5039206;28;20032;-71
2021/07/16 13:29:40;;;;;;;6.80;2.50;;;;;;;;;;5038577;28;20037;-71
2021/07/16 13:32:07;;;;;;;7.22;2.55;;;;;;;;;;5039645;28;20083;-71
2021/07/16 13:34:33;;;;;;;3.60;2.10;;;;;;;;;;5038932;28;20129;-71
2021/07/16 13:36:59;;;;;;;5.28;2.10;;;;;;;;;;5039801;28;20063;-71
2021/07/16 13:39:25;;;;;;;3.58;1.95;;;;;;;;;;5039015;28;20060;-71
2021/07/16 13:41:52;;;;;;;4.05;2.08;;;;;;;;;;5037935;28;20021;-71
2021/07/16 13:44:18;;;;;;;4.13;1.83;;;;;;;;;;5039884;28;20117;-71
2021/07/16 13:46:44;;;;;;;6.72;2.22;;;;;;;;;;5038147;28;20028;-71
2021/07/16 13:49:10;;;;;;;3.85;2.22;;;;;;;;;;5040347;28;20807;-71
2021/07/16 13:51:36;;;;;;;2.85;1.92;;;;;;;;;;5036597;28;20054;-70
2021/07/16 13:54:03;;;;;;;5.40;2.10;;;;;;;;;;5039851;28;20082;-71
2021/07/16 13:56:29;;;;;;;5.90;2.35;;;;;;;;;;5039877;28;20032;-71
2021/07/16 13:58:55;;;;;;;3.17;1.63;;;;;;;;;;5037832;28;20033;-70
2021/07/16 14:01:23;;;;;;;6.10;2.15;;;;;;;;;;5038193;28;20040;-71
2021/07/16 14:03:49;;;;;;;2.90;2.03;;;;;;;;;;5036597;28;20079;-71
2021/07/16 14:06:16;;;;;;;5.80;2.80;;;;;;;;;;5039478;28;20477;-71
2021/07/16 14:08:42;;;;;;;3.88;2.15;;;;;;;;;;5028680;28;20251;-71
2021/07/16 14:11:08;;;;;;;6.35;2.65;;;;;;;;;;5021316;28;20366;-71
2021/07/16 14:13:34;;;;;;;4.45;2.42;;;;;;;;;;5021409;28;20420;-71
2021/07/16 14:16:00;;;;;;;10.70;2.85;;;;;;;;;;5019594;28;20071;-70
2021/07/16 14:18:27;;;;;;;4.93;2.42;;;;;;;;;;5019754;28;20049;-71
2021/07/16 14:20:53;;;;;;;4.88;2.47;;;;;;;;;;5021016;28;20026;-71
2021/07/16 14:23:19;;;;;;;7.65;2.15;;;;;;;;;;5019520;28;20021;-71
2021/07/16 14:25:45;;;;;;;5.47;2.55;;;;;;;;;;5020763;28;20057;-71
2021/07/16 14:28:11;;;;;;;6.38;2.70;;;;;;;;;;5020909;28;20029;-71
2021/07/16 14:30:38;;;;;;;5.35;2.85;;;;;;;;;;5020951;28;20143;-71
2021/07/16 14:33:05;;;;;;;6.18;2.50;;;;;;;;;;5020573;28;20033;-71
2021/07/16 14:35:31;;;;;;;6.82;2.67;;;;;;;;;;5020562;28;20029;-71
2021/07/16 14:37:57;;;;;;;6.68;2.60;;;;;;;;;;5007342;28;20029;-70
2021/07/16 14:40:24;;;;;;;10.70;2.65;;;;;;;;;;5004268;28;20521;-71
2021/07/16 14:42:50;;;;;;;7.07;2.92;;;;;;;;;;5001843;28;20057;-70
2021/07/16 14:45:16;;;;;;;5.50;2.80;;;;;;;;;;5006401;28;20421;-71